sensor_id;sensor_type;location;lat;lon;timestamp;temperature;humidity
22666;DHT22;11499;49.486;11.104;2022-11-15T00:00:54;6.60;99.90
22666;DHT22;11499;49.486;11.104;2022-11-15T00:03:24;6.60;99.90
22666;DHT22;11499;49.486;11.104;2022-11-15T00:05:50;6.50;99.90
22666;DHT22;11499;49.486;11.104;2022-11-15T00:08:16;6.50;99.90
22666;DHT22;11499;49.486;11.104;2022-11-15T00:13:26;6.40;99.90
22666;DHT22;11499;49.486;11.104;2022-11-15T00:15:52;6.30;99.90
22666;DHT22;11499;49.486;11.104;2022-11-15T00:18:18;6.30;99.90
22666;DHT22;11499;49.486;11.104;2022-11-15T00:20:43;6.30;99.90
22666;DHT22;11499;49.486;11.104;2022-11-15T00:23:09;6.30;99.90
22666;DHT22;11499;49.486;11.104;2022-11-15T00:25:35;6.30;99.90
22666;DHT22;11499;49.486;11.104;2022-11-15T00:28:01;6.40;99.90
22666;DHT22;11499;49.486;11.104;2022-11-15T00:30:27;6.40;99.90
22666;DHT22;11499;49.486;11.104;2022-11-15T00:32:53;6.50;99.90
22666;DHT22;11499;49.486;11.104;2022-11-15T00:35:19;6.50;99.90
22666;DHT22;11499;49.486;11.104;2022-11-15T00:40:19;6.40;99.90
22666;DHT22;11499;49.486;11.104;2022-11-15T00:42:45;6.40;99.90
22666;DHT22;11499;49.486;11.104;2022-11-15T00:45:10;6.30;99.90
22666;DHT22;11499;49.486;11.104;2022-11-15T00:47:36;6.20;99.90
22666;DHT22;11499;49.486;11.104;2022-11-15T00:50:02;6.10;99.90
22666;DHT22;11499;49.486;11.104;2022-11-15T00:52:27;6.10;99.90
22666;DHT22;11499;49.486;11.104;2022-11-15T00:54:53;6.00;99.90
22666;DHT22;11499;49.486;11.104;2022-11-15T00:57:18;6.00;99.90
22666;DHT22;11499;49.486;11.104;2022-11-15T00:59:44;5.90;99.90
22666;DHT22;11499;49.486;11.104;2022-11-15T01:02:09;5.90;99.90
22666;DHT22;11499;49.486;11.104;2022-11-15T01:07:26;5.80;99.90
22666;DHT22;11499;49.486;11.104;2022-11-15T01:09:52;5.80;99.90
22666;DHT22;11499;49.486;11.104;2022-11-15T01:12:17;5.70;99.90
22666;DHT22;11499;49.486;11.104;2022-11-15T01:14:43;5.70;99.90
22666;DHT22;11499;49.486;11.104;2022-11-15T01:17:08;5.70;99.90
22666;DHT22;11499;49.486;11.104;2022-11-15T01:19:34;5.70;99.90
22666;DHT22;11499;49.486;11.104;2022-11-15T01:21:59;5.70;99.90
22666;DHT22;11499;49.486;11.104;2022-11-15T01:24:25;5.70;99.90
22666;DHT22;11499;49.486;11.104;2022-11-15T01:26:51;5.70;99.90
22666;DHT22;11499;49.486;11.104;2022-11-15T01:29:16;5.60;99.90
22666;DHT22;11499;49.486;11.104;2022-11-15T01:33:35;5.70;99.90
22666;DHT22;11499;49.486;11.104;2022-11-15T01:36:12;5.40;99.90
22666;DHT22;11499;49.486;11.104;2022-11-15T01:38:38;5.40;99.90
22666;DHT22;11499;49.486;11.104;2022-11-15T01:41:04;5.40;99.90
22666;DHT22;11499;49.486;11.104;2022-11-15T01:43:39;5.40;99.90
22666;DHT22;11499;49.486;11.104;2022-11-15T01:48:53;5.50;99.90
22666;DHT22;11499;49.486;11.104;2022-11-15T01:51:22;5.50;99.90
22666;DHT22;11499;49.486;11.104;2022-11-15T01:53:52;5.40;99.90
22666;DHT22;11499;49.486;11.104;2022-11-15T01:56:23;5.40;99.90
22666;DHT22;11499;49.486;11.104;2022-11-15T02:01:16;5.30;99.90
22666;DHT22;11499;49.486;11.104;2022-11-15T02:03:50;5.30;99.90
22666;DHT22;11499;49.486;11.104;2022-11-15T02:06:17;5.30;99.90
22666;DHT22;11499;49.486;11.104;2022-11-15T02:08:44;5.30;99.90
22666;DHT22;11499;49.486;11.104;2022-11-15T02:11:10;5.30;99.90
22666;DHT22;11499;49.486;11.104;2022-11-15T02:13:36;5.30;99.90
22666;DHT22;11499;49.486;11.104;2022-11-15T02:18:57;5.40;99.90
22666;DHT22;11499;49.486;11.104;2022-11-15T02:28:48;5.50;99.90
22666;DHT22;11499;49.486;11.104;2022-11-15T02:31:28;5.50;99.90
22666;DHT22;11499;49.486;11.104;2022-11-15T02:34:11;5.50;99.90
22666;DHT22;11499;49.486;11.104;2022-11-15T02:37:01;5.50;99.90
22666;DHT22;11499;49.486;11.104;2022-11-15T02:42:12;5.40;99.90
22666;DHT22;11499;49.486;11.104;2022-11-15T02:45:03;5.50;99.90
22666;DHT22;11499;49.486;11.104;2022-11-15T02:47:34;5.40;99.90
22666;DHT22;11499;49.486;11.104;2022-11-15T02:50:06;5.40;99.90
22666;DHT22;11499;49.486;11.104;2022-11-15T02:54:31;5.30;99.90
22666;DHT22;11499;49.486;11.104;2022-11-15T02:57:03;5.20;99.90
22666;DHT22;11499;49.486;11.104;2022-11-15T03:04:59;5.30;99.90
22666;DHT22;11499;49.486;11.104;2022-11-15T03:10:06;5.10;99.90
22666;DHT22;11499;49.486;11.104;2022-11-15T03:12:41;5.20;99.90
22666;DHT22;11499;49.486;11.104;2022-11-15T03:15:23;5.10;99.90
22666;DHT22;11499;49.486;11.104;2022-11-15T03:17:57;5.10;99.90
22666;DHT22;11499;49.486;11.104;2022-11-15T03:22:15;5.00;99.90
22666;DHT22;11499;49.486;11.104;2022-11-15T03:24:43;4.80;99.90
22666;DHT22;11499;49.486;11.104;2022-11-15T03:27:14;4.70;99.90
22666;DHT22;11499;49.486;11.104;2022-11-15T03:29:46;4.80;99.90
22666;DHT22;11499;49.486;11.104;2022-11-15T03:32:17;5.00;99.90
22666;DHT22;11499;49.486;11.104;2022-11-15T03:37:14;5.20;99.90
22666;DHT22;11499;49.486;11.104;2022-11-15T03:39:42;5.10;99.90
22666;DHT22;11499;49.486;11.104;2022-11-15T03:44:59;5.10;99.90
22666;DHT22;11499;49.486;11.104;2022-11-15T03:50:08;5.10;99.90
22666;DHT22;11499;49.486;11.104;2022-11-15T03:52:35;5.00;99.90
22666;DHT22;11499;49.486;11.104;2022-11-15T03:55:02;5.00;99.90
22666;DHT22;11499;49.486;11.104;2022-11-15T03:57:28;4.90;99.90
22666;DHT22;11499;49.486;11.104;2022-11-15T03:59:54;5.00;99.90
22666;DHT22;11499;49.486;11.104;2022-11-15T04:02:20;4.90;99.90
22666;DHT22;11499;49.486;11.104;2022-11-15T04:04:45;4.90;99.90
22666;DHT22;11499;49.486;11.104;2022-11-15T04:07:11;4.90;99.90
22666;DHT22;11499;49.486;11.104;2022-11-15T04:09:36;4.90;99.90
22666;DHT22;11499;49.486;11.104;2022-11-15T04:12:20;4.90;99.90
22666;DHT22;11499;49.486;11.104;2022-11-15T04:17:45;4.80;99.90
22666;DHT22;11499;49.486;11.104;2022-11-15T04:20:14;4.70;99.90
22666;DHT22;11499;49.486;11.104;2022-11-15T04:22:59;4.70;99.90
22666;DHT22;11499;49.486;11.104;2022-11-15T04:25:45;4.70;99.90
22666;DHT22;11499;49.486;11.104;2022-11-15T04:28:11;4.60;99.90
22666;DHT22;11499;49.486;11.104;2022-11-15T04:30:37;4.70;99.90
22666;DHT22;11499;49.486;11.104;2022-11-15T04:33:03;4.70;99.90
22666;DHT22;11499;49.486;11.104;2022-11-15T04:35:29;4.70;99.90
22666;DHT22;11499;49.486;11.104;2022-11-15T04:37:55;4.60;99.90
22666;DHT22;11499;49.486;11.104;2022-11-15T04:40:21;4.60;99.90
22666;DHT22;11499;49.486;11.104;2022-11-15T04:45:17;4.50;99.90
22666;DHT22;11499;49.486;11.104;2022-11-15T04:47:44;4.40;99.90
22666;DHT22;11499;49.486;11.104;2022-11-15T04:50:10;4.30;99.90
22666;DHT22;11499;49.486;11.104;2022-11-15T04:52:42;4.30;99.90
22666;DHT22;11499;49.486;11.104;2022-11-15T04:55:10;4.30;99.90
22666;DHT22;11499;49.486;11.104;2022-11-15T04:57:36;4.40;99.90
22666;DHT22;11499;49.486;11.104;2022-11-15T05:00:07;4.40;99.90
22666;DHT22;11499;49.486;11.104;2022-11-15T05:02:33;4.30;99.90
22666;DHT22;11499;49.486;11.104;2022-11-15T05:05:17;4.30;99.90
22666;DHT22;11499;49.486;11.104;2022-11-15T05:07:43;4.20;99.90
22666;DHT22;11499;49.486;11.104;2022-11-15T05:12:46;4.30;99.90
22666;DHT22;11499;49.486;11.104;2022-11-15T05:15:11;4.30;99.90
22666;DHT22;11499;49.486;11.104;2022-11-15T05:17:37;4.40;99.90
22666;DHT22;11499;49.486;11.104;2022-11-15T05:20:03;4.30;99.90
22666;DHT22;11499;49.486;11.104;2022-11-15T05:22:28;4.40;99.90
22666;DHT22;11499;49.486;11.104;2022-11-15T05:24:54;4.40;99.90
22666;DHT22;11499;49.486;11.104;2022-11-15T05:27:19;4.40;99.90
22666;DHT22;11499;49.486;11.104;2022-11-15T05:29:45;4.40;99.90
22666;DHT22;11499;49.486;11.104;2022-11-15T05:32:11;4.40;99.90
22666;DHT22;11499;49.486;11.104;2022-11-15T05:34:37;4.50;99.90
22666;DHT22;11499;49.486;11.104;2022-11-15T05:38:43;4.50;99.90
22666;DHT22;11499;49.486;11.104;2022-11-15T05:41:09;4.60;99.90
22666;DHT22;11499;49.486;11.104;2022-11-15T05:43:38;4.60;99.90
22666;DHT22;11499;49.486;11.104;2022-11-15T05:46:05;4.50;99.90
22666;DHT22;11499;49.486;11.104;2022-11-15T05:48:31;4.50;99.90
22666;DHT22;11499;49.486;11.104;2022-11-15T05:50:58;4.50;99.90
22666;DHT22;11499;49.486;11.104;2022-11-15T05:53:24;4.50;99.90
22666;DHT22;11499;49.486;11.104;2022-11-15T05:55:51;4.50;99.90
22666;DHT22;11499;49.486;11.104;2022-11-15T05:58:17;4.50;99.90
22666;DHT22;11499;49.486;11.104;2022-11-15T06:00:43;4.50;99.90
22666;DHT22;11499;49.486;11.104;2022-11-15T06:03:09;4.50;99.90
22666;DHT22;11499;49.486;11.104;2022-11-15T06:08:27;4.50;99.90
22666;DHT22;11499;49.486;11.104;2022-11-15T06:10:52;4.50;99.90
22666;DHT22;11499;49.486;11.104;2022-11-15T06:13:18;4.50;99.90
22666;DHT22;11499;49.486;11.104;2022-11-15T06:15:43;4.40;99.90
22666;DHT22;11499;49.486;11.104;2022-11-15T06:18:09;4.50;99.90
22666;DHT22;11499;49.486;11.104;2022-11-15T06:20:35;4.60;99.90
22666;DHT22;11499;49.486;11.104;2022-11-15T06:23:03;4.60;99.90
22666;DHT22;11499;49.486;11.104;2022-11-15T06:25:29;4.60;99.90
22666;DHT22;11499;49.486;11.104;2022-11-15T06:27:57;4.60;99.90
22666;DHT22;11499;49.486;11.104;2022-11-15T06:33:23;4.60;99.90
22666;DHT22;11499;49.486;11.104;2022-11-15T06:35:48;4.80;99.90
22666;DHT22;11499;49.486;11.104;2022-11-15T06:38:14;5.00;99.90
22666;DHT22;11499;49.486;11.104;2022-11-15T06:40:39;5.00;99.90
22666;DHT22;11499;49.486;11.104;2022-11-15T06:43:06;5.00;99.90
22666;DHT22;11499;49.486;11.104;2022-11-15T06:45:32;5.00;99.90
22666;DHT22;11499;49.486;11.104;2022-11-15T06:47:58;5.10;99.90
22666;DHT22;11499;49.486;11.104;2022-11-15T06:50:24;5.10;99.90
22666;DHT22;11499;49.486;11.104;2022-11-15T06:52:49;5.20;99.90
22666;DHT22;11499;49.486;11.104;2022-11-15T06:55:15;5.20;99.90
22666;DHT22;11499;49.486;11.104;2022-11-15T07:00:21;5.30;99.90
22666;DHT22;11499;49.486;11.104;2022-11-15T07:02:47;5.40;99.90
22666;DHT22;11499;49.486;11.104;2022-11-15T07:05:13;5.50;99.90
22666;DHT22;11499;49.486;11.104;2022-11-15T07:07:39;5.60;99.90
22666;DHT22;11499;49.486;11.104;2022-11-15T07:10:05;5.70;99.90
22666;DHT22;11499;49.486;11.104;2022-11-15T07:12:31;5.80;99.90
22666;DHT22;11499;49.486;11.104;2022-11-15T07:14:57;5.90;99.90
22666;DHT22;11499;49.486;11.104;2022-11-15T07:17:22;5.90;99.90
22666;DHT22;11499;49.486;11.104;2022-11-15T07:19:48;6.00;99.90
22666;DHT22;11499;49.486;11.104;2022-11-15T07:22:13;6.20;99.90
22666;DHT22;11499;49.486;11.104;2022-11-15T07:26:42;6.20;99.90
22666;DHT22;11499;49.486;11.104;2022-11-15T07:29:08;6.40;99.90
22666;DHT22;11499;49.486;11.104;2022-11-15T07:31:33;6.50;99.90
22666;DHT22;11499;49.486;11.104;2022-11-15T07:33:58;6.60;99.90
22666;DHT22;11499;49.486;11.104;2022-11-15T07:36:24;6.70;99.90
22666;DHT22;11499;49.486;11.104;2022-11-15T07:38:50;6.70;99.90
22666;DHT22;11499;49.486;11.104;2022-11-15T07:41:15;6.80;99.90
22666;DHT22;11499;49.486;11.104;2022-11-15T07:43:41;6.90;99.90
22666;DHT22;11499;49.486;11.104;2022-11-15T07:46:07;7.00;99.90
22666;DHT22;11499;49.486;11.104;2022-11-15T07:48:37;7.10;99.90
22666;DHT22;11499;49.486;11.104;2022-11-15T07:54:05;7.20;99.90
22666;DHT22;11499;49.486;11.104;2022-11-15T07:56:31;7.50;99.90
22666;DHT22;11499;49.486;11.104;2022-11-15T07:58:56;7.60;99.90
22666;DHT22;11499;49.486;11.104;2022-11-15T08:01:22;7.80;99.90
22666;DHT22;11499;49.486;11.104;2022-11-15T08:03:48;7.80;99.90
22666;DHT22;11499;49.486;11.104;2022-11-15T08:06:13;8.00;99.90
22666;DHT22;11499;49.486;11.104;2022-11-15T08:08:39;8.10;99.90
22666;DHT22;11499;49.486;11.104;2022-11-15T08:11:04;8.10;99.90
22666;DHT22;11499;49.486;11.104;2022-11-15T08:13:30;8.30;99.90
22666;DHT22;11499;49.486;11.104;2022-11-15T08:15:59;8.40;99.90
22666;DHT22;11499;49.486;11.104;2022-11-15T08:21:58;8.50;99.90
22666;DHT22;11499;49.486;11.104;2022-11-15T08:24:24;8.60;99.90
22666;DHT22;11499;49.486;11.104;2022-11-15T08:26:49;8.70;99.90
22666;DHT22;11499;49.486;11.104;2022-11-15T08:29:15;8.70;99.90
22666;DHT22;11499;49.486;11.104;2022-11-15T08:31:41;8.90;99.90
22666;DHT22;11499;49.486;11.104;2022-11-15T08:34:07;8.90;99.90
22666;DHT22;11499;49.486;11.104;2022-11-15T08:36:32;9.00;99.90
22666;DHT22;11499;49.486;11.104;2022-11-15T08:38:58;9.10;99.90
22666;DHT22;11499;49.486;11.104;2022-11-15T08:41:30;9.20;99.90
22666;DHT22;11499;49.486;11.104;2022-11-15T08:43:56;9.40;99.90
22666;DHT22;11499;49.486;11.104;2022-11-15T08:48:55;9.50;99.90
22666;DHT22;11499;49.486;11.104;2022-11-15T08:51:20;9.80;99.90
22666;DHT22;11499;49.486;11.104;2022-11-15T08:53:46;9.90;99.90
22666;DHT22;11499;49.486;11.104;2022-11-15T08:56:13;10.10;99.90
22666;DHT22;11499;49.486;11.104;2022-11-15T08:58:39;10.20;99.90
22666;DHT22;11499;49.486;11.104;2022-11-15T09:01:05;10.30;99.90
22666;DHT22;11499;49.486;11.104;2022-11-15T09:03:31;10.50;99.90
22666;DHT22;11499;49.486;11.104;2022-11-15T09:05:58;10.60;99.90
22666;DHT22;11499;49.486;11.104;2022-11-15T09:08:24;10.60;99.90
22666;DHT22;11499;49.486;11.104;2022-11-15T09:10:50;10.70;99.90
22666;DHT22;11499;49.486;11.104;2022-11-15T09:14:52;10.80;99.90
22666;DHT22;11499;49.486;11.104;2022-11-15T09:17:18;11.00;99.70
22666;DHT22;11499;49.486;11.104;2022-11-15T09:19:43;11.10;99.20
22666;DHT22;11499;49.486;11.104;2022-11-15T09:22:09;11.20;98.60
22666;DHT22;11499;49.486;11.104;2022-11-15T09:24:35;11.40;98.70
22666;DHT22;11499;49.486;11.104;2022-11-15T09:27:00;11.50;98.00
22666;DHT22;11499;49.486;11.104;2022-11-15T09:29:26;11.50;97.80
22666;DHT22;11499;49.486;11.104;2022-11-15T09:31:53;11.60;97.50
22666;DHT22;11499;49.486;11.104;2022-11-15T09:34:19;11.70;97.10
22666;DHT22;11499;49.486;11.104;2022-11-15T09:36:45;11.80;96.60
22666;DHT22;11499;49.486;11.104;2022-11-15T09:42:20;11.90;95.90
22666;DHT22;11499;49.486;11.104;2022-11-15T09:50:49;12.30;95.00
22666;DHT22;11499;49.486;11.104;2022-11-15T09:53:32;12.30;94.40
22666;DHT22;11499;49.486;11.104;2022-11-15T09:56:05;12.50;94.50
22666;DHT22;11499;49.486;11.104;2022-11-15T09:58:55;12.60;94.50
22666;DHT22;11499;49.486;11.104;2022-11-15T10:01:43;12.60;94.20
22666;DHT22;11499;49.486;11.104;2022-11-15T10:04:10;12.70;93.80
22666;DHT22;11499;49.486;11.104;2022-11-15T10:08:58;12.70;93.70
22666;DHT22;11499;49.486;11.104;2022-11-15T10:11:32;12.80;93.80
22666;DHT22;11499;49.486;11.104;2022-11-15T10:14:07;12.80;93.20
22666;DHT22;11499;49.486;11.104;2022-11-15T10:24:43;13.30;92.00
22666;DHT22;11499;49.486;11.104;2022-11-15T10:27:17;13.30;92.20
22666;DHT22;11499;49.486;11.104;2022-11-15T10:29:45;13.50;91.90
22666;DHT22;11499;49.486;11.104;2022-11-15T10:32:13;13.70;91.60
22666;DHT22;11499;49.486;11.104;2022-11-15T10:36:19;13.80;91.10
22666;DHT22;11499;49.486;11.104;2022-11-15T10:41:21;14.10;90.00
22666;DHT22;11499;49.486;11.104;2022-11-15T10:46:41;14.20;89.40
22666;DHT22;11499;49.486;11.104;2022-11-15T10:49:17;14.30;88.90
22666;DHT22;11499;49.486;11.104;2022-11-15T10:52:02;14.20;87.60
22666;DHT22;11499;49.486;11.104;2022-11-15T10:54:45;14.40;86.80
22666;DHT22;11499;49.486;11.104;2022-11-15T10:57:16;14.40;85.90
22666;DHT22;11499;49.486;11.104;2022-11-15T11:02:55;14.50;86.30
22666;DHT22;11499;49.486;11.104;2022-11-15T11:07:57;14.80;84.40
22666;DHT22;11499;49.486;11.104;2022-11-15T11:10:23;14.90;83.50
22666;DHT22;11499;49.486;11.104;2022-11-15T11:12:49;14.90;82.90
22666;DHT22;11499;49.486;11.104;2022-11-15T11:15:15;14.90;82.90
22666;DHT22;11499;49.486;11.104;2022-11-15T11:18:07;14.90;82.10
22666;DHT22;11499;49.486;11.104;2022-11-15T11:20:45;15.00;82.20
22666;DHT22;11499;49.486;11.104;2022-11-15T11:28:30;15.00;81.80
22666;DHT22;11499;49.486;11.104;2022-11-15T11:36:51;15.20;81.10
22666;DHT22;11499;49.486;11.104;2022-11-15T11:47:21;15.60;80.40
22666;DHT22;11499;49.486;11.104;2022-11-15T11:49:59;15.60;80.30
22666;DHT22;11499;49.486;11.104;2022-11-15T11:55:22;15.60;80.70
22666;DHT22;11499;49.486;11.104;2022-11-15T12:00:55;15.70;79.80
22666;DHT22;11499;49.486;11.104;2022-11-15T12:03:38;15.70;79.20
22666;DHT22;11499;49.486;11.104;2022-11-15T12:06:32;15.60;78.70
22666;DHT22;11499;49.486;11.104;2022-11-15T12:09:12;15.60;78.90
22666;DHT22;11499;49.486;11.104;2022-11-15T12:14:44;15.60;78.80
22666;DHT22;11499;49.486;11.104;2022-11-15T12:17:11;15.70;78.50
22666;DHT22;11499;49.486;11.104;2022-11-15T12:21:59;15.90;78.40
22666;DHT22;11499;49.486;11.104;2022-11-15T12:24:31;16.00;79.10
22666;DHT22;11499;49.486;11.104;2022-11-15T12:27:07;16.00;78.50
22666;DHT22;11499;49.486;11.104;2022-11-15T12:29:40;16.20;78.50
22666;DHT22;11499;49.486;11.104;2022-11-15T12:32:34;16.20;78.10
22666;DHT22;11499;49.486;11.104;2022-11-15T12:35:02;16.00;78.30
22666;DHT22;11499;49.486;11.104;2022-11-15T12:40:22;15.90;79.10
22666;DHT22;11499;49.486;11.104;2022-11-15T12:51:00;16.20;79.00
22666;DHT22;11499;49.486;11.104;2022-11-15T12:58:59;16.30;78.10
22666;DHT22;11499;49.486;11.104;2022-11-15T13:14:46;16.40;77.90
22666;DHT22;11499;49.486;11.104;2022-11-15T13:17:17;16.30;78.90
22666;DHT22;11499;49.486;11.104;2022-11-15T13:19:53;16.40;78.80
22666;DHT22;11499;49.486;11.104;2022-11-15T13:22:20;16.40;78.80
22666;DHT22;11499;49.486;11.104;2022-11-15T13:25:15;16.30;78.60
22666;DHT22;11499;49.486;11.104;2022-11-15T13:27:45;16.20;78.80
22666;DHT22;11499;49.486;11.104;2022-11-15T13:30:26;16.20;78.70
22666;DHT22;11499;49.486;11.104;2022-11-15T13:32:53;16.30;79.00
22666;DHT22;11499;49.486;11.104;2022-11-15T13:35:24;16.30;79.10
22666;DHT22;11499;49.486;11.104;2022-11-15T13:40:36;16.30;79.60
22666;DHT22;11499;49.486;11.104;2022-11-15T13:43:27;16.20;78.90
22666;DHT22;11499;49.486;11.104;2022-11-15T13:46:17;16.00;79.10
22666;DHT22;11499;49.486;11.104;2022-11-15T13:48:44;16.00;79.70
22666;DHT22;11499;49.486;11.104;2022-11-15T13:51:21;15.90;80.20
22666;DHT22;11499;49.486;11.104;2022-11-15T13:53:56;15.80;80.20
22666;DHT22;11499;49.486;11.104;2022-11-15T13:56:23;15.70;80.50
22666;DHT22;11499;49.486;11.104;2022-11-15T13:58:51;15.80;80.70
22666;DHT22;11499;49.486;11.104;2022-11-15T14:01:20;15.80;80.70
22666;DHT22;11499;49.486;11.104;2022-11-15T14:06:30;15.70;80.90
22666;DHT22;11499;49.486;11.104;2022-11-15T14:09:15;15.70;81.00
22666;DHT22;11499;49.486;11.104;2022-11-15T14:11:53;15.60;81.30
22666;DHT22;11499;49.486;11.104;2022-11-15T14:14:24;15.60;81.50
22666;DHT22;11499;49.486;11.104;2022-11-15T14:16:53;15.50;82.70
22666;DHT22;11499;49.486;11.104;2022-11-15T14:22:19;15.20;82.80
22666;DHT22;11499;49.486;11.104;2022-11-15T14:27:42;14.90;83.30
22666;DHT22;11499;49.486;11.104;2022-11-15T14:30:17;14.80;83.80
22666;DHT22;11499;49.486;11.104;2022-11-15T14:34:23;14.70;84.20
22666;DHT22;11499;49.486;11.104;2022-11-15T14:36:48;14.40;85.10
22666;DHT22;11499;49.486;11.104;2022-11-15T14:39:14;14.40;85.30
22666;DHT22;11499;49.486;11.104;2022-11-15T14:41:39;14.20;85.90
22666;DHT22;11499;49.486;11.104;2022-11-15T14:44:06;14.10;86.40
22666;DHT22;11499;49.486;11.104;2022-11-15T14:46:32;13.90;86.90
22666;DHT22;11499;49.486;11.104;2022-11-15T14:48:57;13.80;87.10
22666;DHT22;11499;49.486;11.104;2022-11-15T14:51:23;13.60;87.50
22666;DHT22;11499;49.486;11.104;2022-11-15T14:53:49;13.60;88.30
22666;DHT22;11499;49.486;11.104;2022-11-15T14:56:15;13.40;88.90
22666;DHT22;11499;49.486;11.104;2022-11-15T15:01:20;13.30;89.50
22666;DHT22;11499;49.486;11.104;2022-11-15T15:03:46;13.00;90.20
22666;DHT22;11499;49.486;11.104;2022-11-15T15:06:11;12.90;90.50
22666;DHT22;11499;49.486;11.104;2022-11-15T15:08:39;12.80;90.90
22666;DHT22;11499;49.486;11.104;2022-11-15T15:11:28;12.60;91.00
22666;DHT22;11499;49.486;11.104;2022-11-15T15:13:55;12.50;91.30
22666;DHT22;11499;49.486;11.104;2022-11-15T15:16:23;12.40;91.50
22666;DHT22;11499;49.486;11.104;2022-11-15T15:18:49;12.30;91.90
22666;DHT22;11499;49.486;11.104;2022-11-15T15:21:35;12.10;92.20
22666;DHT22;11499;49.486;11.104;2022-11-15T15:27:05;11.90;92.90
22666;DHT22;11499;49.486;11.104;2022-11-15T15:29:31;11.80;93.20
22666;DHT22;11499;49.486;11.104;2022-11-15T15:31:56;11.70;93.50
22666;DHT22;11499;49.486;11.104;2022-11-15T15:34:22;11.50;93.80
22666;DHT22;11499;49.486;11.104;2022-11-15T15:36:47;11.40;94.20
22666;DHT22;11499;49.486;11.104;2022-11-15T15:39:13;11.30;94.60
22666;DHT22;11499;49.486;11.104;2022-11-15T15:41:38;11.20;95.00
22666;DHT22;11499;49.486;11.104;2022-11-15T15:44:04;11.10;95.30
22666;DHT22;11499;49.486;11.104;2022-11-15T15:46:29;11.00;95.40
22666;DHT22;11499;49.486;11.104;2022-11-15T15:48:55;10.90;95.80
22666;DHT22;11499;49.486;11.104;2022-11-15T15:54:05;10.90;96.10
22666;DHT22;11499;49.486;11.104;2022-11-15T15:56:31;10.90;97.10
22666;DHT22;11499;49.486;11.104;2022-11-15T15:58:56;10.80;98.00
22666;DHT22;11499;49.486;11.104;2022-11-15T16:01:22;10.70;98.90
22666;DHT22;11499;49.486;11.104;2022-11-15T16:03:47;10.60;99.50
22666;DHT22;11499;49.486;11.104;2022-11-15T16:06:34;10.50;99.90
22666;DHT22;11499;49.486;11.104;2022-11-15T16:09:00;10.40;99.90
22666;DHT22;11499;49.486;11.104;2022-11-15T16:11:26;10.30;99.90
22666;DHT22;11499;49.486;11.104;2022-11-15T16:13:52;10.30;99.90
22666;DHT22;11499;49.486;11.104;2022-11-15T16:16:19;10.30;99.90
22666;DHT22;11499;49.486;11.104;2022-11-15T16:21:24;10.30;99.90
22666;DHT22;11499;49.486;11.104;2022-11-15T16:23:50;10.30;99.90
22666;DHT22;11499;49.486;11.104;2022-11-15T16:26:21;10.20;99.90
22666;DHT22;11499;49.486;11.104;2022-11-15T16:28:49;10.20;99.90
22666;DHT22;11499;49.486;11.104;2022-11-15T16:31:15;10.20;99.90
22666;DHT22;11499;49.486;11.104;2022-11-15T16:33:43;10.20;99.90
22666;DHT22;11499;49.486;11.104;2022-11-15T16:36:23;10.20;99.90
22666;DHT22;11499;49.486;11.104;2022-11-15T16:38:49;10.30;99.90
22666;DHT22;11499;49.486;11.104;2022-11-15T16:41:15;10.30;99.90
22666;DHT22;11499;49.486;11.104;2022-11-15T16:43:46;10.30;99.90
22666;DHT22;11499;49.486;11.104;2022-11-15T16:47:46;10.30;99.90
22666;DHT22;11499;49.486;11.104;2022-11-15T16:52:49;10.40;99.90
22666;DHT22;11499;49.486;11.104;2022-11-15T16:55:15;10.40;99.90
22666;DHT22;11499;49.486;11.104;2022-11-15T16:57:40;10.40;99.90
22666;DHT22;11499;49.486;11.104;2022-11-15T17:00:10;10.40;99.90
22666;DHT22;11499;49.486;11.104;2022-11-15T17:02:35;10.40;99.90
22666;DHT22;11499;49.486;11.104;2022-11-15T17:05:01;10.40;99.90
22666;DHT22;11499;49.486;11.104;2022-11-15T17:07:26;10.40;99.90
22666;DHT22;11499;49.486;11.104;2022-11-15T17:09:52;10.50;99.90
22666;DHT22;11499;49.486;11.104;2022-11-15T17:14:51;10.50;99.90
22666;DHT22;11499;49.486;11.104;2022-11-15T17:17:16;10.60;99.90
22666;DHT22;11499;49.486;11.104;2022-11-15T17:19:42;10.60;99.90
22666;DHT22;11499;49.486;11.104;2022-11-15T17:22:07;10.60;99.90
22666;DHT22;11499;49.486;11.104;2022-11-15T17:24:33;10.70;99.90
22666;DHT22;11499;49.486;11.104;2022-11-15T17:26:58;10.60;99.90
22666;DHT22;11499;49.486;11.104;2022-11-15T17:29:24;10.60;99.90
22666;DHT22;11499;49.486;11.104;2022-11-15T17:31:49;10.60;99.90
22666;DHT22;11499;49.486;11.104;2022-11-15T17:34:15;10.60;99.90
22666;DHT22;11499;49.486;11.104;2022-11-15T17:36:40;10.50;99.90
22666;DHT22;11499;49.486;11.104;2022-11-15T17:41:54;10.50;99.90
22666;DHT22;11499;49.486;11.104;2022-11-15T17:44:20;10.40;99.90
22666;DHT22;11499;49.486;11.104;2022-11-15T17:46:46;10.50;99.90
22666;DHT22;11499;49.486;11.104;2022-11-15T17:49:11;10.40;99.90
22666;DHT22;11499;49.486;11.104;2022-11-15T17:51:37;10.40;99.90
22666;DHT22;11499;49.486;11.104;2022-11-15T17:54:02;10.40;99.90
22666;DHT22;11499;49.486;11.104;2022-11-15T17:56:28;10.40;99.90
22666;DHT22;11499;49.486;11.104;2022-11-15T17:58:59;10.40;99.90
22666;DHT22;11499;49.486;11.104;2022-11-15T18:01:29;10.40;99.90
22666;DHT22;11499;49.486;11.104;2022-11-15T18:03:56;10.30;99.90
22666;DHT22;11499;49.486;11.104;2022-11-15T18:08:55;10.30;99.90
22666;DHT22;11499;49.486;11.104;2022-11-15T18:11:29;10.30;99.90
22666;DHT22;11499;49.486;11.104;2022-11-15T18:13:58;10.20;99.90
22666;DHT22;11499;49.486;11.104;2022-11-15T18:16:26;10.20;99.90
22666;DHT22;11499;49.486;11.104;2022-11-15T18:18:53;10.20;99.90
22666;DHT22;11499;49.486;11.104;2022-11-15T18:21:29;10.20;99.90
22666;DHT22;11499;49.486;11.104;2022-11-15T18:23:57;10.20;99.90
22666;DHT22;11499;49.486;11.104;2022-11-15T18:26:25;10.20;99.90
22666;DHT22;11499;49.486;11.104;2022-11-15T18:28:53;10.30;99.90
22666;DHT22;11499;49.486;11.104;2022-11-15T18:31:28;10.30;99.90
22666;DHT22;11499;49.486;11.104;2022-11-15T18:36:42;10.30;99.90
22666;DHT22;11499;49.486;11.104;2022-11-15T18:39:09;10.40;99.90
22666;DHT22;11499;49.486;11.104;2022-11-15T18:41:41;10.40;99.90
22666;DHT22;11499;49.486;11.104;2022-11-15T18:44:07;10.40;99.90
22666;DHT22;11499;49.486;11.104;2022-11-15T18:46:33;10.40;99.90
22666;DHT22;11499;49.486;11.104;2022-11-15T18:49:00;10.40;99.90
22666;DHT22;11499;49.486;11.104;2022-11-15T18:51:28;10.30;99.90
22666;DHT22;11499;49.486;11.104;2022-11-15T18:53:58;10.30;99.90
22666;DHT22;11499;49.486;11.104;2022-11-15T18:56:27;10.30;99.90
22666;DHT22;11499;49.486;11.104;2022-11-15T18:58:55;10.30;99.90
22666;DHT22;11499;49.486;11.104;2022-11-15T19:03:23;10.20;99.90